createdAt,value
2019-03-01T00:02:28.369Z,72.13
2019-03-01T00:05:18.033Z,72.18
2019-03-01T00:08:08.552Z,72.06
2019-03-01T00:10:46.964Z,72.54
2019-03-01T00:13:43.958Z,72.51
2019-03-01T00:16:31.655Z,72.45
2019-03-01T00:19:15.061Z,72.67
2019-03-01T00:22:08.561Z,72.77
2019-03-01T00:25:11.765Z,72.87
2019-03-01T00:28:15.126Z,72.60
2019-03-01T00:31:04.525Z,72.53
2019-03-01T00:33:42.070Z,72.40
2019-03-01T00:36:16.850Z,72.21
2019-03-01T00:39:18.243Z,72.44
2019-03-01T00:42:03.319Z,72.43
2019-03-01T00:44:48.383Z,72.51
2019-03-01T00:47:20.099Z,72.48
2019-03-01T00:49:51.154Z,72.36
2019-03-01T00:52:22.478Z,72.08
2019-03-01T00:54:53.866Z,71.68
2019-03-01T00:57:25.107Z,71.56
2019-03-01T00:59:56.237Z,71.91
2019-03-01T01:02:27.486Z,71.59
2019-03-01T01:04:58.665Z,71.37
2019-03-01T01:07:29.790Z,71.35
2019-03-01T01:10:01.042Z,71.26
2019-03-01T01:12:32.702Z,71.24
2019-03-01T01:15:05.806Z,71.09
2019-03-01T01:17:37.536Z,70.98
2019-03-01T01:20:09.803Z,70.47
2019-03-01T01:22:41.249Z,70.58
2019-03-01T01:25:12.287Z,70.49
2019-03-01T01:27:44.733Z,69.88
2019-03-01T01:30:17.142Z,68.46
2019-03-01T01:32:49.308Z,68.11
2019-03-01T01:35:20.362Z,67.77
2019-03-01T01:37:52.890Z,67.00
2019-03-01T01:40:24.327Z,66.63
2019-03-01T01:42:57.202Z,66.50
2019-03-01T01:45:28.375Z,66.25
2019-03-01T01:47:59.739Z,66.25
2019-03-01T01:50:30.946Z,66.26
2019-03-01T01:53:02.005Z,66.65
2019-03-01T01:55:33.193Z,66.29
2019-03-01T01:58:04.493Z,66.41
2019-03-01T02:00:35.790Z,66.73
2019-03-01T02:03:06.983Z,67.47
2019-03-01T02:05:38.264Z,66.96
2019-03-01T02:08:09.534Z,66.64
2019-03-01T02:10:40.735Z,66.52
2019-03-01T02:13:12.034Z,66.62
2019-03-01T02:15:43.176Z,66.66
2019-03-01T02:18:14.425Z,66.83
2019-03-01T02:20:45.468Z,66.99
2019-03-01T02:23:16.655Z,67.12
2019-03-01T02:25:47.853Z,67.52
2019-03-01T02:28:21.039Z,67.82
2019-03-01T02:30:57.527Z,68.08
2019-03-01T02:33:28.877Z,68.46
2019-03-01T02:36:00.325Z,68.95
2019-03-01T02:38:31.770Z,68.88
2019-03-01T02:41:02.721Z,69.56
2019-03-01T02:43:35.920Z,69.67
2019-03-01T02:46:07.253Z,69.82
2019-03-01T02:48:38.198Z,69.94
2019-03-01T02:51:09.482Z,70.26
2019-03-01T02:53:40.991Z,70.05
2019-03-01T02:56:12.239Z,69.75
2019-03-01T02:58:45.074Z,69.94
2019-03-01T03:01:16.490Z,70.08
2019-03-01T03:03:48.125Z,69.81
2019-03-01T03:06:21.053Z,69.23
2019-03-01T03:08:56.078Z,68.57
2019-03-01T03:11:27.483Z,68.89
2019-03-01T03:13:59.384Z,68.54
2019-03-01T03:16:32.124Z,68.33
2019-03-01T03:19:03.308Z,68.14
2019-03-01T03:21:34.547Z,67.40
2019-03-01T03:24:05.809Z,67.71
2019-03-01T03:26:37.344Z,67.42
2019-03-01T03:29:08.398Z,67.50
2019-03-01T03:31:39.332Z,67.65
2019-03-01T03:34:11.658Z,67.88
2019-03-01T03:36:42.757Z,68.25
2019-03-01T03:39:13.766Z,68.18
2019-03-01T03:41:46.897Z,67.33
2019-03-01T03:44:25.750Z,67.78
2019-03-01T03:46:56.966Z,68.17
2019-03-01T03:49:28.197Z,68.75
2019-03-01T03:51:59.416Z,68.77
2019-03-01T03:54:30.619Z,69.38
2019-03-01T03:57:01.651Z,70.15
2019-03-01T03:59:32.887Z,70.23
2019-03-01T04:02:04.102Z,70.75
2019-03-01T04:04:35.297Z,70.66
2019-03-01T04:07:06.543Z,71.56
2019-03-01T04:09:37.975Z,71.85
2019-03-01T04:12:09.118Z,71.59
2019-03-01T04:14:40.297Z,72.05
2019-03-01T04:17:11.683Z,72.31
2019-03-01T04:19:43.261Z,72.43
2019-03-01T04:22:14.510Z,72.40
2019-03-01T04:24:46.015Z,73.12
2019-03-01T04:27:19.203Z,72.70
2019-03-01T04:29:51.679Z,72.81
2019-03-01T04:32:23.079Z,72.86
2019-03-01T04:34:54.306Z,72.61
2019-03-01T04:37:25.779Z,72.73
2019-03-01T04:39:57.129Z,72.53
2019-03-01T04:42:28.491Z,72.24
2019-03-01T04:45:02.665Z,71.98
2019-03-01T04:47:36.698Z,71.67
2019-03-01T04:50:09.959Z,71.52
2019-03-01T04:52:41.442Z,71.31
2019-03-01T04:55:18.139Z,70.70
2019-03-01T04:57:49.380Z,71.17
2019-03-01T05:00:22.704Z,70.48
2019-03-01T05:02:53.837Z,69.90
2019-03-01T05:05:25.321Z,69.64
2019-03-01T05:07:56.890Z,69.18
2019-03-01T05:10:28.021Z,69.01
2019-03-01T05:12:59.090Z,68.46
2019-03-01T05:15:30.675Z,68.11
2019-03-01T05:18:03.758Z,67.83
2019-03-01T05:20:35.309Z,67.48
2019-03-01T05:23:07.066Z,67.72
2019-03-01T05:25:39.391Z,67.71
2019-03-01T05:28:10.595Z,67.19
2019-03-01T05:30:41.699Z,67.07
2019-03-01T05:33:13.244Z,67.21
2019-03-01T05:35:44.298Z,67.03
2019-03-01T05:38:21.689Z,65.45
2019-03-01T05:40:49.402Z,65.64
2019-03-01T05:43:21.764Z,65.81
2019-03-01T05:45:55.776Z,65.34
2019-03-01T05:48:27.201Z,65.26
2019-03-01T05:51:03.558Z,65.39
2019-03-01T05:53:34.899Z,65.11
2019-03-01T05:56:07.136Z,65.01
2019-03-01T05:58:40.515Z,65.31
2019-03-01T06:01:21.172Z,65.07
2019-03-01T06:04:04.401Z,65.19
2019-03-01T06:06:57.360Z,65.64
2019-03-01T06:09:40.740Z,65.33
2019-03-01T06:12:15.187Z,65.09
2019-03-01T06:15:07.162Z,64.52
2019-03-01T06:17:50.830Z,64.13
2019-03-01T06:20:37.606Z,63.77
2019-03-01T06:23:14.958Z,63.85
2019-03-01T06:25:52.003Z,63.46
2019-03-01T06:29:01.137Z,63.74
2019-03-01T06:31:44.795Z,64.03
2019-03-01T06:34:22.261Z,64.48
2019-03-01T06:36:59.730Z,64.94
2019-03-01T06:39:48.019Z,65.05
2019-03-01T06:42:41.264Z,65.23
2019-03-01T06:45:18.571Z,65.25
2019-03-01T06:47:51.944Z,65.37
2019-03-01T06:50:25.135Z,65.39
2019-03-01T06:52:56.477Z,65.42
2019-03-01T06:55:36.185Z,65.94
2019-03-01T06:58:18.938Z,65.69
2019-03-01T07:00:55.008Z,65.48
2019-03-01T07:03:26.507Z,65.01
2019-03-01T07:06:03.618Z,64.67
2019-03-01T07:08:35.671Z,64.69
2019-03-01T07:11:07.797Z,64.14
2019-03-01T07:13:40.962Z,63.87
2019-03-01T07:16:12.411Z,63.03
2019-03-01T07:18:44.653Z,62.16
2019-03-01T07:21:18.999Z,61.84
2019-03-01T07:23:51.437Z,61.33
2019-03-01T07:26:22.765Z,61.05
2019-03-01T07:28:56.240Z,60.47
2019-03-01T07:31:29.559Z,59.85
2019-03-01T07:34:08.659Z,60.79
2019-03-01T07:36:41.014Z,60.84
2019-03-01T07:39:13.690Z,60.17
2019-03-01T07:41:49.606Z,60.47
2019-03-01T07:44:28.874Z,60.43
2019-03-01T07:47:03.320Z,60.19
2019-03-01T07:49:38.151Z,59.72
2019-03-01T07:52:25.030Z,59.85
2019-03-01T07:54:56.305Z,59.09
2019-03-01T07:57:36.842Z,59.77
2019-03-01T08:00:18.050Z,60.12
2019-03-01T08:02:53.314Z,59.66
2019-03-01T08:05:24.768Z,59.88
2019-03-01T08:08:03.554Z,59.99
2019-03-01T08:10:33.814Z,59.81
2019-03-01T08:13:06.357Z,59.88
2019-03-01T08:15:45.049Z,60.30
2019-03-01T08:18:16.063Z,60.27
2019-03-01T08:20:47.388Z,59.88
2019-03-01T08:23:20.826Z,59.70
2019-03-01T08:25:55.633Z,60.27
2019-03-01T08:28:27.390Z,60.47
2019-03-01T08:30:59.033Z,60.22
2019-03-01T08:33:30.322Z,59.95
2019-03-01T08:36:07.189Z,59.62
2019-03-01T08:38:39.903Z,59.34
2019-03-01T08:41:25.200Z,57.85
2019-03-01T08:43:59.110Z,58.20
2019-03-01T08:46:30.644Z,58.53
2019-03-01T08:49:02.032Z,59.02
2019-03-01T08:51:35.172Z,59.00
2019-03-01T08:54:06.779Z,58.93
2019-03-01T08:56:38.194Z,58.54
2019-03-01T08:59:17.600Z,59.09
2019-03-01T09:01:50.390Z,58.85
2019-03-01T09:04:22.803Z,58.14
2019-03-01T09:06:54.267Z,58.01
2019-03-01T09:09:27.762Z,56.89
2019-03-01T09:12:01.202Z,57.49
2019-03-01T09:14:33.660Z,58.30
2019-03-01T09:17:06.248Z,57.51
2019-03-01T09:19:38.404Z,56.19
2019-03-01T09:22:09.647Z,55.83
2019-03-01T09:24:42.966Z,56.34
2019-03-01T09:27:17.171Z,58.16
2019-03-01T09:29:49.481Z,57.78
2019-03-01T09:32:24.089Z,57.56
2019-03-01T09:35:08.198Z,57.64
2019-03-01T09:37:40.273Z,57.46
2019-03-01T09:40:11.525Z,57.21
2019-03-01T09:42:42.954Z,57.11
2019-03-01T09:45:16.363Z,56.33
2019-03-01T09:47:47.956Z,57.21
2019-03-01T09:50:21.731Z,55.37
2019-03-01T09:52:55.662Z,55.36
2019-03-01T09:55:27.853Z,55.59
2019-03-01T09:58:00.292Z,54.35
2019-03-01T10:00:40.589Z,54.01
2019-03-01T10:03:13.052Z,53.67
2019-03-01T10:05:44.216Z,54.23
2019-03-01T10:08:15.598Z,54.78
2019-03-01T10:10:47.847Z,55.27
2019-03-01T10:13:19.087Z,55.32
2019-03-01T10:15:52.001Z,55.01
2019-03-01T10:18:24.400Z,54.61
2019-03-01T10:20:56.777Z,54.82
2019-03-01T10:23:29.801Z,54.57
2019-03-01T10:26:06.999Z,55.00
2019-03-01T10:28:44.612Z,55.48
2019-03-01T10:31:17.100Z,55.72
2019-03-01T10:33:48.683Z,56.01
2019-03-01T10:36:21.476Z,56.61
2019-03-01T10:38:53.880Z,58.28
2019-03-01T10:41:25.580Z,59.37
2019-03-01T10:43:58.583Z,60.58
2019-03-01T10:46:33.459Z,60.44
2019-03-01T10:49:06.410Z,61.15
2019-03-01T10:51:37.944Z,60.82
2019-03-01T10:54:13.612Z,59.93
2019-03-01T10:56:44.162Z,59.02
2019-03-01T11:01:54.199Z,59.22
2019-03-01T11:04:25.672Z,58.88
2019-03-01T11:06:58.126Z,58.58
2019-03-01T11:09:33.262Z,58.43
2019-03-01T11:12:05.533Z,57.34
2019-03-01T11:14:38.447Z,55.96
2019-03-01T11:17:20.413Z,53.26
2019-03-01T11:19:51.758Z,52.93
2019-03-01T11:22:23.258Z,52.91
2019-03-01T11:24:54.909Z,52.72
2019-03-01T11:27:26.336Z,53.42
2019-03-01T11:30:02.633Z,54.42
2019-03-01T11:32:34.988Z,56.58
2019-03-01T11:35:06.497Z,56.94
2019-03-01T11:37:37.989Z,56.72
2019-03-01T11:40:13.347Z,57.04
2019-03-01T11:42:44.584Z,56.80
2019-03-01T11:45:20.733Z,56.62
2019-03-01T11:47:52.098Z,56.80
2019-03-01T11:50:24.549Z,57.19
2019-03-01T11:52:55.602Z,57.32
2019-03-01T11:55:28.144Z,57.04
2019-03-01T11:57:59.530Z,57.28
2019-03-01T12:00:30.777Z,57.36
2019-03-01T12:03:01.966Z,56.61
2019-03-01T12:05:34.561Z,56.95
2019-03-01T12:08:06.080Z,56.82
2019-03-01T12:10:37.732Z,55.92
2019-03-01T12:13:10.709Z,56.37
2019-03-01T12:15:42.147Z,56.05
2019-03-01T12:18:17.461Z,56.05
2019-03-01T12:20:54.788Z,56.13
2019-03-01T12:23:26.462Z,55.64
2019-03-01T12:26:05.951Z,55.70
2019-03-01T12:28:40.019Z,56.05
2019-03-01T12:31:11.460Z,55.97
2019-03-01T12:33:44.449Z,54.91
2019-03-01T12:36:15.910Z,55.19
2019-03-01T12:38:47.312Z,55.66
2019-03-01T12:41:19.809Z,55.50
2019-03-01T12:43:52.128Z,56.02
2019-03-01T12:46:23.345Z,56.53
2019-03-01T12:48:54.792Z,56.83
2019-03-01T12:51:27.430Z,57.03
2019-03-01T12:53:59.716Z,56.97
2019-03-01T12:56:32.314Z,57.04
2019-03-01T12:59:03.667Z,56.97
2019-03-01T13:01:35.029Z,57.44
2019-03-01T13:04:06.440Z,58.15
2019-03-01T13:06:38.979Z,57.81
2019-03-01T13:09:13.845Z,57.74
2019-03-01T13:11:48.636Z,57.43
2019-03-01T13:14:23.400Z,57.73
2019-03-01T13:16:58.550Z,57.96
2019-03-01T13:19:38.843Z,58.42
2019-03-01T13:22:12.599Z,58.99
2019-03-01T13:24:44.132Z,59.04
2019-03-01T13:27:17.498Z,58.98
2019-03-01T13:29:49.726Z,58.99
2019-03-01T13:32:23.176Z,59.07
2019-03-01T13:34:55.570Z,59.09
2019-03-01T13:37:26.780Z,59.15
2019-03-01T13:40:01.652Z,59.25
2019-03-01T13:42:35.288Z,59.35
2019-03-01T13:45:11.874Z,59.07
2019-03-01T13:47:44.009Z,58.81
2019-03-01T13:50:19.271Z,58.87
2019-03-01T13:52:54.531Z,58.67
2019-03-01T13:55:27.692Z,58.53
2019-03-01T13:58:09.791Z,58.91
2019-03-01T14:00:45.609Z,58.66
2019-03-01T14:03:27.620Z,58.33
2019-03-01T14:05:57.716Z,58.34
2019-03-01T14:08:29.356Z,58.38
2019-03-01T14:11:02.728Z,58.38
2019-03-01T14:13:34.534Z,58.90
2019-03-01T14:16:06.211Z,58.61
2019-03-01T14:18:37.888Z,58.81
2019-03-01T14:21:10.383Z,58.97
2019-03-01T14:23:42.243Z,59.08
2019-03-01T14:26:15.109Z,59.44
2019-03-01T14:28:48.483Z,59.53
2019-03-01T14:31:20.459Z,60.27
2019-03-01T14:34:02.978Z,60.80
2019-03-01T14:36:34.480Z,61.32
2019-03-01T14:39:11.794Z,61.03
2019-03-01T14:41:44.292Z,61.03
2019-03-01T14:44:21.475Z,61.04
2019-03-01T14:46:55.990Z,61.25
2019-03-01T14:49:29.148Z,61.33
2019-03-01T14:52:02.139Z,61.44
2019-03-01T14:54:34.014Z,62.77
2019-03-01T14:57:10.670Z,62.22
2019-03-01T14:59:48.784Z,62.45
2019-03-01T15:02:26.151Z,61.97
2019-03-01T15:05:05.283Z,62.03
2019-03-01T15:07:38.529Z,61.81
2019-03-01T15:10:13.459Z,61.78
2019-03-01T15:12:45.311Z,61.64
2019-03-01T15:15:17.505Z,61.42
2019-03-01T15:17:57.029Z,61.72
2019-03-01T15:20:31.617Z,61.79
2019-03-01T15:23:06.244Z,61.91
2019-03-01T15:25:39.031Z,61.82
2019-03-01T15:28:23.319Z,62.04
2019-03-01T15:31:02.287Z,62.37
2019-03-01T15:33:33.928Z,62.54
2019-03-01T15:36:05.475Z,62.82
2019-03-01T15:38:37.323Z,62.83
2019-03-01T15:41:11.462Z,62.48
2019-03-01T15:43:49.435Z,62.67
2019-03-01T15:46:21.092Z,62.94
2019-03-01T15:48:52.855Z,62.93
2019-03-01T15:51:28.447Z,62.99
2019-03-01T15:54:01.065Z,63.04
2019-03-01T15:56:39.488Z,63.29
2019-03-01T15:59:13.755Z,63.22
2019-03-01T16:01:47.131Z,63.13
2019-03-01T16:04:18.692Z,62.97
2019-03-01T16:06:55.187Z,63.37
2019-03-01T16:09:25.307Z,63.42
2019-03-01T16:11:58.761Z,63.51
2019-03-01T16:14:34.225Z,63.73
2019-03-01T16:17:06.633Z,63.81
2019-03-01T16:19:38.287Z,64.32
2019-03-01T16:22:09.775Z,64.24
2019-03-01T16:24:45.053Z,64.77
2019-03-01T16:27:20.952Z,64.71
2019-03-01T16:29:52.703Z,64.67
2019-03-01T16:32:24.323Z,64.97
2019-03-01T16:34:55.862Z,65.44
2019-03-01T16:37:29.816Z,66.03
2019-03-01T16:40:03.372Z,66.80
2019-03-01T16:42:38.486Z,66.73
2019-03-01T16:45:14.287Z,66.84
2019-03-01T16:47:45.816Z,66.76
2019-03-01T16:50:20.852Z,66.51
2019-03-01T16:52:54.618Z,66.18
2019-03-01T16:55:29.693Z,66.41
2019-03-01T16:58:07.356Z,66.20
2019-03-01T17:00:38.939Z,66.04
2019-03-01T17:03:17.965Z,65.40
2019-03-01T17:05:50.658Z,65.35
2019-03-01T17:08:22.127Z,64.99
2019-03-01T17:10:53.549Z,64.59
2019-03-01T17:13:27.085Z,64.33
2019-03-01T17:16:03.010Z,64.38
2019-03-01T17:18:36.585Z,64.13
2019-03-01T17:21:12.538Z,63.64
2019-03-01T17:23:43.221Z,63.69
2019-03-01T17:26:15.825Z,63.75
2019-03-01T17:28:50.453Z,63.72
2019-03-01T17:31:27.951Z,63.83
2019-03-01T17:34:01.268Z,64.02
2019-03-01T17:36:35.343Z,63.65
2019-03-01T17:39:07.213Z,63.62
2019-03-01T17:41:44.859Z,63.61
2019-03-01T17:44:14.914Z,63.75
2019-03-01T17:46:49.202Z,63.56
2019-03-01T17:49:23.225Z,63.54
2019-03-01T17:51:56.504Z,63.77
2019-03-01T17:54:31.467Z,63.69
2019-03-01T17:57:03.013Z,63.63
2019-03-01T17:59:35.080Z,63.53
2019-03-01T18:02:07.046Z,63.71
2019-03-01T18:04:39.836Z,63.64
2019-03-01T18:07:11.482Z,63.43
2019-03-01T18:09:42.890Z,63.57
2019-03-01T18:12:17.425Z,63.47
2019-03-01T18:14:49.117Z,63.61
2019-03-01T18:17:22.027Z,62.87
2019-03-01T18:19:58.805Z,62.91
2019-03-01T18:22:29.219Z,62.95
2019-03-01T18:25:10.234Z,62.48
2019-03-01T18:27:41.840Z,62.89
2019-03-01T18:30:24.884Z,62.64
2019-03-01T18:33:02.324Z,62.53
2019-03-01T18:35:34.351Z,61.78
2019-03-01T18:38:11.910Z,61.68
2019-03-01T18:40:43.575Z,61.48
2019-03-01T18:43:15.125Z,61.24
2019-03-01T18:45:49.136Z,61.66
2019-03-01T18:48:23.348Z,61.04
2019-03-01T18:50:56.338Z,61.06
2019-03-01T18:53:30.657Z,60.59
2019-03-01T18:56:04.162Z,60.22
2019-03-01T18:58:35.490Z,60.30
2019-03-01T19:01:10.887Z,60.10
2019-03-01T19:03:42.313Z,60.13
2019-03-01T19:06:16.223Z,60.64
2019-03-01T19:08:49.803Z,60.70
2019-03-01T19:11:21.187Z,60.90
2019-03-01T19:13:55.135Z,60.74
2019-03-01T19:16:29.821Z,61.15
2019-03-01T19:19:01.768Z,61.46
2019-03-01T19:21:33.319Z,61.91
2019-03-01T19:24:08.036Z,61.68
2019-03-01T19:26:41.552Z,61.60
2019-03-01T19:29:13.112Z,61.72
2019-03-01T19:31:44.452Z,62.21
2019-03-01T19:34:16.901Z,62.13
2019-03-01T19:36:49.400Z,61.81
2019-03-01T19:39:21.072Z,62.37
2019-03-01T19:41:54.535Z,61.49
2019-03-01T19:44:28.891Z,61.55
2019-03-01T19:46:58.682Z,61.36
2019-03-01T19:49:30.156Z,61.17
2019-03-01T19:52:01.410Z,61.22
2019-03-01T19:54:35.723Z,60.85
2019-03-01T19:57:06.640Z,60.76
2019-03-01T19:59:37.990Z,60.88
2019-03-01T20:02:10.212Z,60.75
2019-03-01T20:04:46.065Z,61.07
2019-03-01T20:07:20.824Z,60.92
2019-03-01T20:09:52.094Z,60.79
2019-03-01T20:12:23.967Z,60.49
2019-03-01T20:14:55.404Z,60.62
2019-03-01T20:17:30.378Z,59.75
2019-03-01T20:20:01.487Z,59.54
2019-03-01T20:22:34.022Z,59.53
2019-03-01T20:25:08.179Z,59.74
2019-03-01T20:27:40.274Z,58.95
2019-03-01T20:30:32.617Z,58.77
2019-03-01T20:33:07.196Z,59.06
2019-03-01T20:35:38.561Z,59.22
2019-03-01T20:38:09.929Z,59.58
2019-03-01T20:40:41.076Z,59.79
2019-03-01T20:43:12.350Z,59.72
2019-03-01T20:45:43.764Z,59.71
2019-03-01T20:48:15.806Z,59.76
2019-03-01T20:50:50.988Z,59.07
2019-03-01T20:53:21.081Z,59.23
2019-03-01T20:55:52.388Z,59.29
2019-03-01T20:58:26.452Z,60.46
2019-03-01T21:01:01.951Z,59.75
2019-03-01T21:03:36.205Z,59.92
2019-03-01T21:06:07.484Z,59.93
2019-03-01T21:08:41.632Z,59.87
2019-03-01T21:11:12.871Z,60.02
2019-03-01T21:13:45.721Z,59.91
2019-03-01T21:16:17.452Z,60.01
2019-03-01T21:18:49.723Z,59.90
2019-03-01T21:21:21.069Z,59.95
2019-03-01T21:23:55.187Z,60.31
2019-03-01T21:26:27.772Z,60.47
2019-03-01T21:28:59.025Z,60.75
2019-03-01T21:31:35.415Z,61.13
2019-03-01T21:34:07.045Z,61.15
2019-03-01T21:36:38.275Z,61.55
2019-03-01T21:39:09.733Z,62.23
2019-03-01T21:41:44.504Z,62.64
2019-03-01T21:44:16.043Z,63.16
2019-03-01T21:46:50.648Z,63.02
2019-03-01T21:49:24.973Z,63.21
2019-03-01T21:51:57.236Z,63.58
2019-03-01T21:54:29.698Z,63.49
2019-03-01T21:57:00.969Z,63.42
2019-03-01T21:59:33.170Z,63.65
2019-03-01T22:02:05.709Z,63.39
2019-03-01T22:04:38.211Z,63.62
2019-03-01T22:07:09.326Z,63.22
2019-03-01T22:09:41.539Z,63.33
2019-03-01T22:12:14.805Z,63.74
2019-03-01T22:14:49.053Z,63.63
2019-03-01T22:17:21.336Z,63.76
2019-03-01T22:19:53.550Z,64.28
2019-03-01T22:22:24.904Z,64.46
2019-03-01T22:24:58.684Z,64.32
2019-03-01T22:27:28.801Z,64.26
2019-03-01T22:30:01.819Z,64.76
2019-03-01T22:32:34.629Z,64.56
2019-03-01T22:35:10.832Z,64.56
2019-03-01T22:37:42.118Z,64.75
2019-03-01T22:40:13.533Z,65.26
2019-03-01T22:42:49.819Z,65.90
2019-03-01T22:45:19.404Z,66.37
2019-03-01T22:47:51.009Z,66.67
2019-03-01T22:50:22.261Z,66.68
2019-03-01T22:52:54.435Z,66.70
2019-03-01T22:55:26.845Z,66.77
2019-03-01T22:58:05.569Z,66.66
2019-03-01T23:00:54.574Z,66.63
2019-03-01T23:03:26.441Z,66.72
2019-03-01T23:05:57.887Z,66.82
2019-03-01T23:08:31.800Z,66.82
2019-03-01T23:11:03.312Z,66.45
2019-03-01T23:13:36.656Z,66.11
2019-03-01T23:16:07.795Z,66.85
2019-03-01T23:18:40.543Z,66.79
2019-03-01T23:21:11.723Z,66.54
2019-03-01T23:23:42.972Z,66.55
2019-03-01T23:26:14.312Z,66.55
2019-03-01T23:28:52.626Z,66.74
2019-03-01T23:31:24.206Z,66.77
2019-03-01T23:33:55.628Z,66.80
2019-03-01T23:36:28.556Z,66.19
2019-03-01T23:38:59.867Z,67.09
2019-03-01T23:41:31.015Z,66.79
2019-03-01T23:44:06.106Z,66.68
2019-03-01T23:46:35.485Z,66.88
2019-03-01T23:49:07.048Z,66.84
2019-03-01T23:51:38.120Z,67.01
2019-03-01T23:54:09.986Z,66.90
2019-03-01T23:56:41.164Z,66.99
2019-03-01T23:59:12.712Z,67.06
